Terminal Aerodrome Forecast
Issued by NWS

Home | Current Version | Previous Version | Graphics & Text | Print | Product List | Glossary On
Versions: 1 2 3 4 5 6 7 8 9 10 11 12 13 14 15 16 17 18 19 20 21
904
FTUS43 KGRB 220702 AAA
TAFAUW
TAF AMD
KAUW 220702Z 2207/2306 10004KT 6SM BR OVC004
     FM221000 VRB03KT 3SM BR OVC004
     FM221300 36003KT 5SM BR OVC006
     FM221400 36003KT P6SM BKN015
     FM221600 34003KT P6SM BKN029
     FM221700 27003KT P6SM SCT070=

USA.gov is the U.S. government's official web portal to all federal, state and local government web resources and services.